sensor_id;sensor_type;location;lat;lon;timestamp;P1;durP1;ratioP1;P2;durP2;ratioP2
33170;SDS011;19535;50.672;4.206;2022-12-29T00:00:09;2.92;;;2.72;;
33170;SDS011;19535;50.672;4.206;2022-12-29T00:02:37;2.70;;;2.50;;
33170;SDS011;19535;50.672;4.206;2022-12-29T00:05:04;2.63;;;2.42;;
33170;SDS011;19535;50.672;4.206;2022-12-29T00:07:31;2.88;;;2.30;;
33170;SDS011;19535;50.672;4.206;2022-12-29T00:09:58;2.50;;;2.30;;
33170;SDS011;19535;50.672;4.206;2022-12-29T00:12:25;2.53;;;2.33;;
33170;SDS011;19535;50.672;4.206;2022-12-29T00:15:12;1.80;;;1.70;;
33170;SDS011;19535;50.672;4.206;2022-12-29T00:17:58;2.20;;;2.00;;
33170;SDS011;19535;50.672;4.206;2022-12-29T00:20:25;3.85;;;1.85;;
33170;SDS011;19535;50.672;4.206;2022-12-29T00:23:10;1.88;;;1.77;;
33170;SDS011;19535;50.672;4.206;2022-12-29T00:25:56;1.65;;;1.55;;
33170;SDS011;19535;50.672;4.206;2022-12-29T00:28:43;1.83;;;1.40;;
33170;SDS011;19535;50.672;4.206;2022-12-29T00:31:28;1.60;;;1.50;;
33170;SDS011;19535;50.672;4.206;2022-12-29T00:34:14;1.38;;;1.23;;
33170;SDS011;19535;50.672;4.206;2022-12-29T00:36:59;1.60;;;1.50;;
33170;SDS011;19535;50.672;4.206;2022-12-29T00:39:27;1.42;;;1.27;;
33170;SDS011;19535;50.672;4.206;2022-12-29T00:42:12;1.50;;;1.40;;
33170;SDS011;19535;50.672;4.206;2022-12-29T00:44:58;1.27;;;1.17;;
33170;SDS011;19535;50.672;4.206;2022-12-29T00:47:24;1.23;;;1.20;;
33170;SDS011;19535;50.672;4.206;2022-12-29T00:49:51;1.35;;;1.25;;
33170;SDS011;19535;50.672;4.206;2022-12-29T00:52:18;1.55;;;1.10;;
33170;SDS011;19535;50.672;4.206;2022-12-29T00:54:45;1.38;;;1.23;;
33170;SDS011;19535;50.672;4.206;2022-12-29T00:57:12;1.30;;;1.20;;
33170;SDS011;19535;50.672;4.206;2022-12-29T00:59:40;1.33;;;1.02;;
33170;SDS011;19535;50.672;4.206;2022-12-29T01:02:07;1.30;;;1.20;;
33170;SDS011;19535;50.672;4.206;2022-12-29T01:04:35;1.20;;;1.10;;
33170;SDS011;19535;50.672;4.206;2022-12-29T01:07:03;1.02;;;1.00;;
33170;SDS011;19535;50.672;4.206;2022-12-29T01:09:31;1.98;;;0.98;;
33170;SDS011;19535;50.672;4.206;2022-12-29T01:12:16;1.08;;;1.00;;
33170;SDS011;19535;50.672;4.206;2022-12-29T01:15:04;1.40;;;1.08;;
33170;SDS011;19535;50.672;4.206;2022-12-29T01:17:32;0.93;;;0.80;;
33170;SDS011;19535;50.672;4.206;2022-12-29T01:20:00;1.10;;;1.00;;
33170;SDS011;19535;50.672;4.206;2022-12-29T01:22:27;0.80;;;0.80;;
33170;SDS011;19535;50.672;4.206;2022-12-29T01:24:54;1.67;;;1.10;;
33170;SDS011;19535;50.672;4.206;2022-12-29T01:27:21;0.80;;;0.80;;
33170;SDS011;19535;50.672;4.206;2022-12-29T01:29:48;1.00;;;0.90;;
33170;SDS011;19535;50.672;4.206;2022-12-29T01:32:15;1.17;;;0.80;;
33170;SDS011;19535;50.672;4.206;2022-12-29T01:34:43;0.93;;;0.80;;
33170;SDS011;19535;50.672;4.206;2022-12-29T01:37:10;0.73;;;0.68;;
33170;SDS011;19535;50.672;4.206;2022-12-29T01:39:37;1.13;;;0.93;;
33170;SDS011;19535;50.672;4.206;2022-12-29T01:42:05;0.70;;;0.70;;
33170;SDS011;19535;50.672;4.206;2022-12-29T01:47:48;1.00;;;0.88;;
33170;SDS011;19535;50.672;4.206;2022-12-29T01:50:27;0.93;;;0.60;;
33170;SDS011;19535;50.672;4.206;2022-12-29T01:53:00;1.13;;;0.90;;
33170;SDS011;19535;50.672;4.206;2022-12-29T01:55:33;1.10;;;0.80;;
33170;SDS011;19535;50.672;4.206;2022-12-29T01:58:03;0.88;;;0.80;;
33170;SDS011;19535;50.672;4.206;2022-12-29T02:00:31;0.63;;;0.60;;
33170;SDS011;19535;50.672;4.206;2022-12-29T02:02:59;0.70;;;0.70;;
33170;SDS011;19535;50.672;4.206;2022-12-29T02:05:33;1.00;;;0.90;;
33170;SDS011;19535;50.672;4.206;2022-12-29T02:08:12;1.67;;;0.70;;
33170;SDS011;19535;50.672;4.206;2022-12-29T02:10:39;0.95;;;0.80;;
33170;SDS011;19535;50.672;4.206;2022-12-29T02:13:07;1.10;;;0.88;;
33170;SDS011;19535;50.672;4.206;2022-12-29T02:15:35;0.70;;;0.60;;
33170;SDS011;19535;50.672;4.206;2022-12-29T02:30:14;0.57;;;0.57;;
33170;SDS011;19535;50.672;4.206;2022-12-29T02:38:20;0.60;;;0.57;;
33170;SDS011;19535;50.672;4.206;2022-12-29T02:41:03;0.63;;;0.60;;
33170;SDS011;19535;50.672;4.206;2022-12-29T02:43:45;0.40;;;0.40;;
33170;SDS011;19535;50.672;4.206;2022-12-29T02:49:18;0.52;;;0.52;;
33170;SDS011;19535;50.672;4.206;2022-12-29T02:51:50;0.55;;;0.50;;
33170;SDS011;19535;50.672;4.206;2022-12-29T02:54:23;0.52;;;0.45;;
33170;SDS011;19535;50.672;4.206;2022-12-29T02:57:10;0.47;;;0.47;;
33170;SDS011;19535;50.672;4.206;2022-12-29T02:59:47;0.60;;;0.38;;
33170;SDS011;19535;50.672;4.206;2022-12-29T03:05:12;0.50;;;0.50;;
33170;SDS011;19535;50.672;4.206;2022-12-29T03:19:19;0.80;;;0.60;;
33170;SDS011;19535;50.672;4.206;2022-12-29T03:22:18;0.50;;;0.50;;
33170;SDS011;19535;50.672;4.206;2022-12-29T03:24:54;0.55;;;0.47;;
33170;SDS011;19535;50.672;4.206;2022-12-29T03:27:35;0.43;;;0.43;;
33170;SDS011;19535;50.672;4.206;2022-12-29T03:30:06;0.55;;;0.50;;
33170;SDS011;19535;50.672;4.206;2022-12-29T03:32:37;0.45;;;0.40;;
33170;SDS011;19535;50.672;4.206;2022-12-29T03:35:08;0.77;;;0.52;;
33170;SDS011;19535;50.672;4.206;2022-12-29T03:37:38;0.63;;;0.45;;
33170;SDS011;19535;50.672;4.206;2022-12-29T03:40:07;0.52;;;0.38;;
33170;SDS011;19535;50.672;4.206;2022-12-29T03:42:35;0.50;;;0.30;;
33170;SDS011;19535;50.672;4.206;2022-12-29T03:45:03;0.77;;;0.60;;
33170;SDS011;19535;50.672;4.206;2022-12-29T03:47:31;0.65;;;0.40;;
33170;SDS011;19535;50.672;4.206;2022-12-29T03:49:57;0.50;;;0.38;;
33170;SDS011;19535;50.672;4.206;2022-12-29T03:52:24;0.70;;;0.60;;
33170;SDS011;19535;50.672;4.206;2022-12-29T03:54:51;0.60;;;0.40;;
33170;SDS011;19535;50.672;4.206;2022-12-29T03:57:18;0.43;;;0.40;;
33170;SDS011;19535;50.672;4.206;2022-12-29T03:59:45;0.65;;;0.38;;
33170;SDS011;19535;50.672;4.206;2022-12-29T04:02:12;0.52;;;0.30;;
33170;SDS011;19535;50.672;4.206;2022-12-29T04:04:39;0.90;;;0.50;;
33170;SDS011;19535;50.672;4.206;2022-12-29T04:07:06;0.35;;;0.35;;
33170;SDS011;19535;50.672;4.206;2022-12-29T04:09:33;0.52;;;0.40;;
33170;SDS011;19535;50.672;4.206;2022-12-29T04:12:00;0.63;;;0.47;;
33170;SDS011;19535;50.672;4.206;2022-12-29T04:14:27;0.77;;;0.38;;
33170;SDS011;19535;50.672;4.206;2022-12-29T04:16:54;0.38;;;0.30;;
33170;SDS011;19535;50.672;4.206;2022-12-29T04:19:20;0.47;;;0.40;;
33170;SDS011;19535;50.672;4.206;2022-12-29T04:21:47;0.50;;;0.30;;
33170;SDS011;19535;50.672;4.206;2022-12-29T04:24:14;0.30;;;0.30;;
33170;SDS011;19535;50.672;4.206;2022-12-29T04:26:43;0.57;;;0.40;;
33170;SDS011;19535;50.672;4.206;2022-12-29T04:29:10;0.50;;;0.40;;
33170;SDS011;19535;50.672;4.206;2022-12-29T04:31:37;0.40;;;0.30;;
33170;SDS011;19535;50.672;4.206;2022-12-29T04:34:04;0.98;;;0.43;;
33170;SDS011;19535;50.672;4.206;2022-12-29T04:36:31;1.10;;;0.50;;
33170;SDS011;19535;50.672;4.206;2022-12-29T04:38:58;0.45;;;0.40;;
33170;SDS011;19535;50.672;4.206;2022-12-29T04:41:25;0.68;;;0.38;;
33170;SDS011;19535;50.672;4.206;2022-12-29T04:43:52;0.75;;;0.38;;
33170;SDS011;19535;50.672;4.206;2022-12-29T04:46:19;0.82;;;0.57;;
33170;SDS011;19535;50.672;4.206;2022-12-29T04:48:46;0.88;;;0.50;;
33170;SDS011;19535;50.672;4.206;2022-12-29T04:51:13;0.57;;;0.30;;
33170;SDS011;19535;50.672;4.206;2022-12-29T04:53:40;0.50;;;0.30;;
33170;SDS011;19535;50.672;4.206;2022-12-29T04:56:07;1.90;;;0.50;;
33170;SDS011;19535;50.672;4.206;2022-12-29T04:58:35;0.55;;;0.45;;
33170;SDS011;19535;50.672;4.206;2022-12-29T05:01:02;0.57;;;0.40;;
33170;SDS011;19535;50.672;4.206;2022-12-29T05:03:29;0.43;;;0.30;;
33170;SDS011;19535;50.672;4.206;2022-12-29T05:05:56;0.75;;;0.40;;
33170;SDS011;19535;50.672;4.206;2022-12-29T05:08:23;0.82;;;0.60;;
33170;SDS011;19535;50.672;4.206;2022-12-29T05:10:54;0.98;;;0.40;;
33170;SDS011;19535;50.672;4.206;2022-12-29T05:13:20;0.95;;;0.50;;
33170;SDS011;19535;50.672;4.206;2022-12-29T05:15:49;0.73;;;0.40;;
33170;SDS011;19535;50.672;4.206;2022-12-29T05:18:19;0.50;;;0.30;;
33170;SDS011;19535;50.672;4.206;2022-12-29T05:20:46;0.98;;;0.38;;
33170;SDS011;19535;50.672;4.206;2022-12-29T05:23:14;0.47;;;0.40;;
33170;SDS011;19535;50.672;4.206;2022-12-29T05:25:43;0.40;;;0.40;;
33170;SDS011;19535;50.672;4.206;2022-12-29T05:28:12;1.08;;;0.52;;
33170;SDS011;19535;50.672;4.206;2022-12-29T05:30:39;0.57;;;0.40;;
33170;SDS011;19535;50.672;4.206;2022-12-29T05:33:06;0.90;;;0.50;;
33170;SDS011;19535;50.672;4.206;2022-12-29T05:35:33;0.75;;;0.57;;
33170;SDS011;19535;50.672;4.206;2022-12-29T05:38:00;1.50;;;0.40;;
33170;SDS011;19535;50.672;4.206;2022-12-29T05:40:27;1.17;;;0.60;;
33170;SDS011;19535;50.672;4.206;2022-12-29T05:42:54;1.00;;;0.43;;
33170;SDS011;19535;50.672;4.206;2022-12-29T05:45:21;1.17;;;0.40;;
33170;SDS011;19535;50.672;4.206;2022-12-29T05:47:47;1.05;;;0.57;;
33170;SDS011;19535;50.672;4.206;2022-12-29T05:50:14;1.00;;;0.50;;
33170;SDS011;19535;50.672;4.206;2022-12-29T05:52:43;0.85;;;0.50;;
33170;SDS011;19535;50.672;4.206;2022-12-29T05:55:10;1.92;;;0.88;;
33170;SDS011;19535;50.672;4.206;2022-12-29T05:57:37;1.35;;;0.47;;
33170;SDS011;19535;50.672;4.206;2022-12-29T06:00:04;0.77;;;0.35;;
33170;SDS011;19535;50.672;4.206;2022-12-29T06:02:32;1.63;;;0.50;;
33170;SDS011;19535;50.672;4.206;2022-12-29T06:04:59;1.13;;;0.50;;
33170;SDS011;19535;50.672;4.206;2022-12-29T06:07:26;1.35;;;0.55;;
33170;SDS011;19535;50.672;4.206;2022-12-29T06:09:53;1.65;;;0.70;;
33170;SDS011;19535;50.672;4.206;2022-12-29T06:12:20;1.45;;;0.50;;
33170;SDS011;19535;50.672;4.206;2022-12-29T06:14:47;0.88;;;0.40;;
33170;SDS011;19535;50.672;4.206;2022-12-29T06:17:14;2.20;;;0.68;;
33170;SDS011;19535;50.672;4.206;2022-12-29T06:19:42;1.08;;;0.50;;
33170;SDS011;19535;50.672;4.206;2022-12-29T06:22:10;1.27;;;0.55;;
33170;SDS011;19535;50.672;4.206;2022-12-29T06:24:38;1.08;;;0.50;;
33170;SDS011;19535;50.672;4.206;2022-12-29T06:27:05;1.40;;;0.50;;
33170;SDS011;19535;50.672;4.206;2022-12-29T06:29:32;1.00;;;0.55;;
33170;SDS011;19535;50.672;4.206;2022-12-29T06:32:01;1.13;;;0.70;;
33170;SDS011;19535;50.672;4.206;2022-12-29T06:34:28;0.80;;;0.40;;
33170;SDS011;19535;50.672;4.206;2022-12-29T06:36:55;1.08;;;0.65;;
33170;SDS011;19535;50.672;4.206;2022-12-29T06:39:21;0.98;;;0.60;;
33170;SDS011;19535;50.672;4.206;2022-12-29T06:41:51;3.20;;;0.80;;
33170;SDS011;19535;50.672;4.206;2022-12-29T06:44:19;0.93;;;0.57;;
33170;SDS011;19535;50.672;4.206;2022-12-29T06:46:47;1.48;;;0.60;;
33170;SDS011;19535;50.672;4.206;2022-12-29T06:49:14;1.10;;;0.63;;
33170;SDS011;19535;50.672;4.206;2022-12-29T06:51:42;1.55;;;0.70;;
33170;SDS011;19535;50.672;4.206;2022-12-29T06:54:09;0.93;;;0.50;;
33170;SDS011;19535;50.672;4.206;2022-12-29T06:56:36;1.13;;;0.50;;
33170;SDS011;19535;50.672;4.206;2022-12-29T06:59:03;1.30;;;0.80;;
33170;SDS011;19535;50.672;4.206;2022-12-29T07:01:30;1.85;;;0.70;;
33170;SDS011;19535;50.672;4.206;2022-12-29T07:03:57;1.15;;;0.60;;
33170;SDS011;19535;50.672;4.206;2022-12-29T07:06:24;1.50;;;0.60;;
33170;SDS011;19535;50.672;4.206;2022-12-29T07:08:50;1.00;;;0.52;;
33170;SDS011;19535;50.672;4.206;2022-12-29T07:11:21;1.80;;;0.80;;
33170;SDS011;19535;50.672;4.206;2022-12-29T07:13:48;1.27;;;0.75;;
33170;SDS011;19535;50.672;4.206;2022-12-29T07:16:14;1.13;;;0.57;;
33170;SDS011;19535;50.672;4.206;2022-12-29T07:18:42;4.13;;;1.00;;
33170;SDS011;19535;50.672;4.206;2022-12-29T07:21:09;2.88;;;0.90;;
33170;SDS011;19535;50.672;4.206;2022-12-29T07:23:36;1.58;;;0.45;;
33170;SDS011;19535;50.672;4.206;2022-12-29T07:26:04;0.95;;;0.68;;
33170;SDS011;19535;50.672;4.206;2022-12-29T07:28:33;1.35;;;0.52;;
33170;SDS011;19535;50.672;4.206;2022-12-29T07:31:01;0.98;;;0.52;;
33170;SDS011;19535;50.672;4.206;2022-12-29T07:33:28;2.15;;;0.82;;
33170;SDS011;19535;50.672;4.206;2022-12-29T07:35:55;1.52;;;0.77;;
33170;SDS011;19535;50.672;4.206;2022-12-29T07:38:23;3.35;;;0.85;;
33170;SDS011;19535;50.672;4.206;2022-12-29T07:40:50;2.10;;;0.90;;
33170;SDS011;19535;50.672;4.206;2022-12-29T07:43:16;1.58;;;0.70;;
33170;SDS011;19535;50.672;4.206;2022-12-29T07:45:43;2.08;;;1.00;;
33170;SDS011;19535;50.672;4.206;2022-12-29T07:48:10;2.80;;;0.85;;
33170;SDS011;19535;50.672;4.206;2022-12-29T07:50:37;1.77;;;0.73;;
33170;SDS011;19535;50.672;4.206;2022-12-29T07:53:04;1.60;;;0.80;;
33170;SDS011;19535;50.672;4.206;2022-12-29T07:55:31;1.35;;;0.70;;
33170;SDS011;19535;50.672;4.206;2022-12-29T07:57:58;2.00;;;0.70;;
33170;SDS011;19535;50.672;4.206;2022-12-29T08:00:25;2.13;;;1.27;;
33170;SDS011;19535;50.672;4.206;2022-12-29T08:02:52;2.20;;;0.70;;
33170;SDS011;19535;50.672;4.206;2022-12-29T08:05:19;1.35;;;0.70;;
33170;SDS011;19535;50.672;4.206;2022-12-29T08:07:46;1.52;;;0.80;;
33170;SDS011;19535;50.672;4.206;2022-12-29T08:10:13;1.33;;;0.77;;
33170;SDS011;19535;50.672;4.206;2022-12-29T08:12:41;1.20;;;1.00;;
33170;SDS011;19535;50.672;4.206;2022-12-29T08:15:09;1.88;;;0.90;;
33170;SDS011;19535;50.672;4.206;2022-12-29T08:17:37;1.63;;;0.70;;
33170;SDS011;19535;50.672;4.206;2022-12-29T08:20:04;1.27;;;0.70;;
33170;SDS011;19535;50.672;4.206;2022-12-29T08:22:31;1.45;;;0.80;;
33170;SDS011;19535;50.672;4.206;2022-12-29T08:24:58;1.67;;;0.80;;
33170;SDS011;19535;50.672;4.206;2022-12-29T08:27:25;1.95;;;0.88;;
33170;SDS011;19535;50.672;4.206;2022-12-29T08:29:52;1.75;;;0.75;;
33170;SDS011;19535;50.672;4.206;2022-12-29T08:32:19;2.35;;;0.98;;
33170;SDS011;19535;50.672;4.206;2022-12-29T08:34:46;2.30;;;1.08;;
33170;SDS011;19535;50.672;4.206;2022-12-29T08:37:13;1.80;;;0.80;;
33170;SDS011;19535;50.672;4.206;2022-12-29T08:39:39;1.40;;;0.73;;
33170;SDS011;19535;50.672;4.206;2022-12-29T08:42:06;1.33;;;0.88;;
33170;SDS011;19535;50.672;4.206;2022-12-29T08:44:33;1.30;;;0.93;;
33170;SDS011;19535;50.672;4.206;2022-12-29T08:47:00;1.45;;;0.95;;
33170;SDS011;19535;50.672;4.206;2022-12-29T08:49:27;1.58;;;0.65;;
33170;SDS011;19535;50.672;4.206;2022-12-29T08:51:54;2.58;;;1.00;;
33170;SDS011;19535;50.672;4.206;2022-12-29T08:54:21;2.25;;;1.10;;
33170;SDS011;19535;50.672;4.206;2022-12-29T08:56:48;2.65;;;1.17;;
33170;SDS011;19535;50.672;4.206;2022-12-29T08:59:15;2.15;;;0.88;;
33170;SDS011;19535;50.672;4.206;2022-12-29T09:01:41;2.33;;;1.00;;
33170;SDS011;19535;50.672;4.206;2022-12-29T09:04:09;2.65;;;0.98;;
33170;SDS011;19535;50.672;4.206;2022-12-29T09:06:42;2.22;;;0.98;;
33170;SDS011;19535;50.672;4.206;2022-12-29T09:09:09;2.10;;;1.00;;
33170;SDS011;19535;50.672;4.206;2022-12-29T09:11:37;2.00;;;1.02;;
33170;SDS011;19535;50.672;4.206;2022-12-29T09:14:04;1.77;;;0.85;;
33170;SDS011;19535;50.672;4.206;2022-12-29T09:16:31;5.45;;;3.63;;
33170;SDS011;19535;50.672;4.206;2022-12-29T09:18:59;7.30;;;5.07;;
33170;SDS011;19535;50.672;4.206;2022-12-29T09:21:26;5.93;;;4.18;;
33170;SDS011;19535;50.672;4.206;2022-12-29T09:23:52;5.57;;;4.38;;
33170;SDS011;19535;50.672;4.206;2022-12-29T09:26:19;7.47;;;3.70;;
33170;SDS011;19535;50.672;4.206;2022-12-29T09:28:46;6.13;;;3.30;;
33170;SDS011;19535;50.672;4.206;2022-12-29T09:31:13;3.67;;;2.60;;
33170;SDS011;19535;50.672;4.206;2022-12-29T09:33:40;5.03;;;2.58;;
33170;SDS011;19535;50.672;4.206;2022-12-29T09:36:07;3.90;;;2.45;;
33170;SDS011;19535;50.672;4.206;2022-12-29T09:38:35;2.95;;;2.10;;
33170;SDS011;19535;50.672;4.206;2022-12-29T09:41:06;4.30;;;1.92;;
33170;SDS011;19535;50.672;4.206;2022-12-29T09:46:26;3.08;;;1.63;;
33170;SDS011;19535;50.672;4.206;2022-12-29T09:52:00;3.67;;;1.73;;
33170;SDS011;19535;50.672;4.206;2022-12-29T09:57:11;4.32;;;2.00;;
33170;SDS011;19535;50.672;4.206;2022-12-29T09:59:45;3.00;;;1.70;;
33170;SDS011;19535;50.672;4.206;2022-12-29T10:09:59;6.82;;;4.28;;
33170;SDS011;19535;50.672;4.206;2022-12-29T10:23:50;4.28;;;2.25;;
33170;SDS011;19535;50.672;4.206;2022-12-29T10:26:23;8.75;;;2.45;;
33170;SDS011;19535;50.672;4.206;2022-12-29T10:28:54;5.88;;;2.40;;
33170;SDS011;19535;50.672;4.206;2022-12-29T10:31:33;2.85;;;1.73;;
33170;SDS011;19535;50.672;4.206;2022-12-29T10:34:14;4.07;;;2.33;;
33170;SDS011;19535;50.672;4.206;2022-12-29T10:36:54;3.67;;;1.90;;
33170;SDS011;19535;50.672;4.206;2022-12-29T10:42:09;2.38;;;1.45;;
33170;SDS011;19535;50.672;4.206;2022-12-29T10:44:40;2.50;;;1.48;;
33170;SDS011;19535;50.672;4.206;2022-12-29T10:47:10;3.42;;;1.52;;
33170;SDS011;19535;50.672;4.206;2022-12-29T10:49:40;2.50;;;1.65;;
33170;SDS011;19535;50.672;4.206;2022-12-29T10:52:09;3.03;;;1.20;;
33170;SDS011;19535;50.672;4.206;2022-12-29T10:54:39;3.17;;;1.73;;
33170;SDS011;19535;50.672;4.206;2022-12-29T10:57:28;2.47;;;1.40;;
33170;SDS011;19535;50.672;4.206;2022-12-29T10:59:58;3.63;;;1.80;;
33170;SDS011;19535;50.672;4.206;2022-12-29T11:02:31;3.10;;;2.75;;
33170;SDS011;19535;50.672;4.206;2022-12-29T11:07:41;5.75;;;4.35;;
33170;SDS011;19535;50.672;4.206;2022-12-29T11:10:19;6.60;;;4.30;;
33170;SDS011;19535;50.672;4.206;2022-12-29T11:13:02;7.43;;;3.83;;
33170;SDS011;19535;50.672;4.206;2022-12-29T11:15:40;4.00;;;3.42;;
33170;SDS011;19535;50.672;4.206;2022-12-29T11:18:34;6.75;;;3.30;;
33170;SDS011;19535;50.672;4.206;2022-12-29T11:21:07;6.70;;;3.13;;
33170;SDS011;19535;50.672;4.206;2022-12-29T11:24:01;5.63;;;2.70;;
33170;SDS011;19535;50.672;4.206;2022-12-29T11:26:31;4.43;;;2.50;;
33170;SDS011;19535;50.672;4.206;2022-12-29T11:29:05;6.47;;;3.00;;
33170;SDS011;19535;50.672;4.206;2022-12-29T11:31:41;6.30;;;2.40;;
33170;SDS011;19535;50.672;4.206;2022-12-29T11:34:16;7.82;;;2.40;;
33170;SDS011;19535;50.672;4.206;2022-12-29T11:36:53;6.93;;;2.45;;
33170;SDS011;19535;50.672;4.206;2022-12-29T11:45:15;4.95;;;1.92;;
33170;SDS011;19535;50.672;4.206;2022-12-29T11:47:53;5.15;;;2.28;;
33170;SDS011;19535;50.672;4.206;2022-12-29T11:50:24;5.22;;;2.28;;
33170;SDS011;19535;50.672;4.206;2022-12-29T11:53:00;4.07;;;1.80;;
33170;SDS011;19535;50.672;4.206;2022-12-29T11:55:29;5.97;;;2.55;;
33170;SDS011;19535;50.672;4.206;2022-12-29T11:57:57;7.47;;;2.15;;
33170;SDS011;19535;50.672;4.206;2022-12-29T12:00:27;4.40;;;2.00;;
33170;SDS011;19535;50.672;4.206;2022-12-29T12:05:38;3.13;;;1.60;;
33170;SDS011;19535;50.672;4.206;2022-12-29T12:08:14;3.33;;;1.77;;
33170;SDS011;19535;50.672;4.206;2022-12-29T12:10:48;4.97;;;1.90;;
33170;SDS011;19535;50.672;4.206;2022-12-29T12:13:27;4.57;;;1.50;;
33170;SDS011;19535;50.672;4.206;2022-12-29T12:16:04;4.88;;;2.55;;
33170;SDS011;19535;50.672;4.206;2022-12-29T12:18:42;4.35;;;1.90;;
33170;SDS011;19535;50.672;4.206;2022-12-29T12:21:18;4.32;;;2.08;;
33170;SDS011;19535;50.672;4.206;2022-12-29T12:24:32;5.10;;;2.22;;
33170;SDS011;19535;50.672;4.206;2022-12-29T12:27:13;4.80;;;1.95;;
33170;SDS011;19535;50.672;4.206;2022-12-29T12:30:02;3.90;;;1.67;;
33170;SDS011;19535;50.672;4.206;2022-12-29T12:32:35;3.55;;;1.67;;
33170;SDS011;19535;50.672;4.206;2022-12-29T12:35:13;3.92;;;1.83;;
33170;SDS011;19535;50.672;4.206;2022-12-29T12:37:50;4.03;;;1.92;;
33170;SDS011;19535;50.672;4.206;2022-12-29T12:43:39;3.58;;;1.80;;
33170;SDS011;19535;50.672;4.206;2022-12-29T12:46:12;3.50;;;1.80;;
33170;SDS011;19535;50.672;4.206;2022-12-29T12:48:58;2.92;;;1.55;;
33170;SDS011;19535;50.672;4.206;2022-12-29T13:02:10;3.03;;;1.40;;
33170;SDS011;19535;50.672;4.206;2022-12-29T13:10:50;2.67;;;1.40;;
33170;SDS011;19535;50.672;4.206;2022-12-29T13:26:40;3.00;;;1.40;;
33170;SDS011;19535;50.672;4.206;2022-12-29T13:32:10;2.17;;;1.25;;
33170;SDS011;19535;50.672;4.206;2022-12-29T13:37:20;2.63;;;1.58;;
33170;SDS011;19535;50.672;4.206;2022-12-29T13:39:53;2.05;;;1.15;;
33170;SDS011;19535;50.672;4.206;2022-12-29T13:44:51;2.67;;;1.67;;
33170;SDS011;19535;50.672;4.206;2022-12-29T13:47:42;2.72;;;1.50;;
33170;SDS011;19535;50.672;4.206;2022-12-29T13:50:15;2.95;;;1.55;;
33170;SDS011;19535;50.672;4.206;2022-12-29T13:55:40;2.53;;;1.20;;
33170;SDS011;19535;50.672;4.206;2022-12-29T14:01:30;3.63;;;1.33;;
33170;SDS011;19535;50.672;4.206;2022-12-29T14:04:22;1.85;;;1.20;;
33170;SDS011;19535;50.672;4.206;2022-12-29T14:07:01;3.22;;;1.73;;
33170;SDS011;19535;50.672;4.206;2022-12-29T14:12:18;3.38;;;1.60;;
33170;SDS011;19535;50.672;4.206;2022-12-29T14:14:47;2.63;;;1.30;;
33170;SDS011;19535;50.672;4.206;2022-12-29T14:17:17;2.72;;;1.40;;
33170;SDS011;19535;50.672;4.206;2022-12-29T14:19:46;2.45;;;1.40;;
33170;SDS011;19535;50.672;4.206;2022-12-29T14:22:24;2.28;;;1.60;;
33170;SDS011;19535;50.672;4.206;2022-12-29T14:24:58;3.67;;;2.05;;
33170;SDS011;19535;50.672;4.206;2022-12-29T14:29:56;8.25;;;5.20;;
33170;SDS011;19535;50.672;4.206;2022-12-29T14:34:53;6.43;;;3.97;;
33170;SDS011;19535;50.672;4.206;2022-12-29T14:37:31;4.10;;;3.25;;
33170;SDS011;19535;50.672;4.206;2022-12-29T14:40:19;5.35;;;3.10;;
33170;SDS011;19535;50.672;4.206;2022-12-29T14:42:52;5.18;;;2.80;;
33170;SDS011;19535;50.672;4.206;2022-12-29T14:47:47;4.10;;;2.42;;
33170;SDS011;19535;50.672;4.206;2022-12-29T14:53:41;3.08;;;2.17;;
33170;SDS011;19535;50.672;4.206;2022-12-29T14:56:09;3.47;;;2.28;;
33170;SDS011;19535;50.672;4.206;2022-12-29T14:58:44;3.10;;;2.20;;
33170;SDS011;19535;50.672;4.206;2022-12-29T15:01:22;4.97;;;2.20;;
33170;SDS011;19535;50.672;4.206;2022-12-29T15:03:54;2.97;;;1.60;;
33170;SDS011;19535;50.672;4.206;2022-12-29T15:06:29;4.60;;;1.92;;
33170;SDS011;19535;50.672;4.206;2022-12-29T15:14:23;3.22;;;1.70;;
33170;SDS011;19535;50.672;4.206;2022-12-29T15:16:51;2.92;;;1.70;;
33170;SDS011;19535;50.672;4.206;2022-12-29T15:19:22;3.63;;;1.48;;
33170;SDS011;19535;50.672;4.206;2022-12-29T15:21:49;4.00;;;1.80;;
33170;SDS011;19535;50.672;4.206;2022-12-29T15:24:16;2.05;;;1.42;;
33170;SDS011;19535;50.672;4.206;2022-12-29T15:26:47;3.90;;;1.73;;
33170;SDS011;19535;50.672;4.206;2022-12-29T15:32:40;3.65;;;1.73;;
33170;SDS011;19535;50.672;4.206;2022-12-29T15:35:29;6.53;;;1.80;;
33170;SDS011;19535;50.672;4.206;2022-12-29T15:38:13;4.82;;;1.70;;
33170;SDS011;19535;50.672;4.206;2022-12-29T15:40:45;4.97;;;1.63;;
33170;SDS011;19535;50.672;4.206;2022-12-29T15:46:04;5.65;;;1.48;;
33170;SDS011;19535;50.672;4.206;2022-12-29T15:48:31;5.30;;;1.50;;
33170;SDS011;19535;50.672;4.206;2022-12-29T15:50:59;4.38;;;3.17;;
33170;SDS011;19535;50.672;4.206;2022-12-29T15:53:30;5.03;;;3.17;;
33170;SDS011;19535;50.672;4.206;2022-12-29T15:56:02;6.18;;;2.80;;
33170;SDS011;19535;50.672;4.206;2022-12-29T15:58:38;6.05;;;3.13;;
33170;SDS011;19535;50.672;4.206;2022-12-29T16:01:16;8.63;;;3.80;;
33170;SDS011;19535;50.672;4.206;2022-12-29T16:03:46;7.60;;;2.50;;
33170;SDS011;19535;50.672;4.206;2022-12-29T16:09:13;6.93;;;2.63;;
33170;SDS011;19535;50.672;4.206;2022-12-29T16:11:46;9.88;;;2.92;;
33170;SDS011;19535;50.672;4.206;2022-12-29T16:14:18;5.90;;;2.30;;
33170;SDS011;19535;50.672;4.206;2022-12-29T16:16:47;5.00;;;2.03;;
33170;SDS011;19535;50.672;4.206;2022-12-29T16:19:24;4.47;;;2.30;;
33170;SDS011;19535;50.672;4.206;2022-12-29T16:21:55;3.38;;;1.90;;
33170;SDS011;19535;50.672;4.206;2022-12-29T16:24:24;3.85;;;2.15;;
33170;SDS011;19535;50.672;4.206;2022-12-29T16:29:32;3.10;;;1.60;;
33170;SDS011;19535;50.672;4.206;2022-12-29T16:32:00;2.85;;;1.27;;
33170;SDS011;19535;50.672;4.206;2022-12-29T16:36:57;3.25;;;1.83;;
33170;SDS011;19535;50.672;4.206;2022-12-29T16:50:31;4.18;;;1.70;;
33170;SDS011;19535;50.672;4.206;2022-12-29T16:52:59;3.15;;;1.52;;
33170;SDS011;19535;50.672;4.206;2022-12-29T16:55:27;4.28;;;1.55;;
33170;SDS011;19535;50.672;4.206;2022-12-29T16:57:54;7.70;;;1.75;;
33170;SDS011;19535;50.672;4.206;2022-12-29T17:00:23;6.68;;;2.13;;
33170;SDS011;19535;50.672;4.206;2022-12-29T17:02:52;4.88;;;1.65;;
33170;SDS011;19535;50.672;4.206;2022-12-29T17:05:22;5.28;;;2.05;;
33170;SDS011;19535;50.672;4.206;2022-12-29T17:07:49;3.78;;;1.52;;
33170;SDS011;19535;50.672;4.206;2022-12-29T17:10:17;4.38;;;1.70;;
33170;SDS011;19535;50.672;4.206;2022-12-29T17:12:44;4.10;;;2.03;;
33170;SDS011;19535;50.672;4.206;2022-12-29T17:17:41;3.08;;;1.38;;
33170;SDS011;19535;50.672;4.206;2022-12-29T17:20:20;4.28;;;1.50;;
33170;SDS011;19535;50.672;4.206;2022-12-29T17:22:52;2.70;;;1.70;;
33170;SDS011;19535;50.672;4.206;2022-12-29T17:25:20;4.45;;;1.50;;
33170;SDS011;19535;50.672;4.206;2022-12-29T17:27:50;3.13;;;1.58;;
33170;SDS011;19535;50.672;4.206;2022-12-29T17:30:25;3.95;;;2.03;;
33170;SDS011;19535;50.672;4.206;2022-12-29T17:33:03;3.92;;;2.15;;
33170;SDS011;19535;50.672;4.206;2022-12-29T17:35:34;4.20;;;1.30;;
33170;SDS011;19535;50.672;4.206;2022-12-29T17:38:01;4.40;;;1.40;;
33170;SDS011;19535;50.672;4.206;2022-12-29T17:40:29;3.80;;;1.63;;
33170;SDS011;19535;50.672;4.206;2022-12-29T17:42:58;6.95;;;4.57;;
33170;SDS011;19535;50.672;4.206;2022-12-29T17:45:27;10.75;;;8.35;;
33170;SDS011;19535;50.672;4.206;2022-12-29T17:50:23;7.35;;;6.45;;
33170;SDS011;19535;50.672;4.206;2022-12-29T17:52:54;8.43;;;6.30;;
33170;SDS011;19535;50.672;4.206;2022-12-29T17:55:26;7.20;;;5.65;;
33170;SDS011;19535;50.672;4.206;2022-12-29T17:58:10;5.95;;;5.07;;
33170;SDS011;19535;50.672;4.206;2022-12-29T18:00:40;5.32;;;4.72;;
33170;SDS011;19535;50.672;4.206;2022-12-29T18:03:09;7.60;;;4.88;;
33170;SDS011;19535;50.672;4.206;2022-12-29T18:05:41;6.38;;;4.60;;